Time;durP1;ratioP1;P1;durP2;ratioP2;P2;SDS_P1;SDS_P2;PMS_P1;PMS_P2;Temp;Humidity;BMP_temperature;BMP_pressure;BME280_temperature;BME280_humidity;BME280_pressure;Samples;Min_cycle;Max_cycle;Signal;HPM_P1;HPM_P2
2022/12/15 00:39:58;;;;;;;32.03;14.73;;;;;;;-6.45;100.00;100388.16;5003021;28;20038;-78
2022/12/15 00:42:30;;;;;;;29.92;14.70;;;;;;;-6.46;100.00;100384.59;4952383;28;20038;-78
2022/12/15 00:44:56;;;;;;;32.25;15.00;;;;;;;-6.41;100.00;100379.19;4999135;28;20081;-79
2022/12/15 00:47:22;;;;;;;36.10;14.40;;;;;;;-6.55;100.00;100364.34;4968187;28;20568;-78
2022/12/15 01:20:19;;;;;;;37.53;15.65;;;;;;;-6.30;100.00;100390.53;5000450;28;20034;-78
2022/12/15 01:22:53;;;;;;;38.42;15.48;;;;;;;-6.34;100.00;100394.19;4998348;28;20070;-79
2022/12/15 01:25:21;;;;;;;35.53;14.60;;;;;;;-6.19;100.00;100388.56;5012127;28;20030;-78
2022/12/15 01:27:47;;;;;;;35.08;14.70;;;;;;;-6.33;100.00;100380.84;5000248;28;20037;-79
2022/12/15 01:30:15;;;;;;;38.97;15.50;;;;;;;-6.36;100.00;100377.31;4997705;28;20147;-80
2022/12/15 01:32:43;;;;;;;29.10;14.55;;;;;;;-6.35;100.00;100381.75;4985557;28;20050;-78
2022/12/15 01:35:10;;;;;;;32.25;15.55;;;;;;;-6.36;100.00;100375.56;4963799;28;20061;-78
2022/12/15 01:37:35;;;;;;;42.40;16.33;;;;;;;-6.25;100.00;100390.47;5002192;28;20026;-78
2022/12/15 01:42:46;;;;;;;30.02;14.32;;;;;;;-6.16;100.00;100407.16;4998637;28;20057;-78
2022/12/15 01:45:58;;;;;;;35.85;15.98;;;;;;;-6.28;100.00;100399.38;4989718;28;20041;-79
2022/12/15 01:48:41;;;;;;;34.17;15.93;;;;;;;-6.36;100.00;100386.22;4975605;28;20050;-78
2022/12/15 01:51:31;;;;;;;41.45;16.77;;;;;;;-6.29;100.00;100403.84;4985881;28;20038;-78
2022/12/15 01:54:05;;;;;;;29.27;14.90;;;;;;;-6.21;100.00;100418.81;4995684;28;20105;-78
2022/12/15 01:56:34;;;;;;;39.03;16.20;;;;;;;-6.16;100.00;100420.50;4982529;28;20117;-78
2022/12/15 01:59:02;;;;;;;32.45;13.73;;;;;;;-6.29;100.00;100418.94;4962672;28;20359;-78
2022/12/15 02:01:28;;;;;;;35.45;16.20;;;;;;;-6.29;100.00;100429.59;4976626;28;20193;-78
2022/12/15 02:03:56;;;;;;;34.42;15.15;;;;;;;-6.42;100.00;100412.06;4986417;28;20130;-78
2022/12/15 02:06:23;;;;;;;35.78;15.43;;;;;;;-6.28;100.00;100423.34;4998311;28;20034;-78
2022/12/15 02:08:53;;;;;;;36.60;15.40;;;;;;;-6.20;100.00;100431.22;4984621;28;20038;-78
2022/12/15 02:11:51;;;;;;;37.97;15.73;;;;;;;-6.31;100.00;100428.75;4983601;28;20113;-79
2022/12/15 02:14:44;;;;;;;30.00;14.23;;;;;;;-6.29;100.00;100434.94;4986456;28;20049;-78
2022/12/15 02:17:19;;;;;;;39.03;18.00;;;;;;;-6.24;100.00;100440.19;4981756;28;20034;-78
2022/12/15 02:20:03;;;;;;;36.50;16.95;;;;;;;-6.27;100.00;100449.09;4992689;28;20281;-79
2022/12/15 02:23:08;;;;;;;37.72;15.88;;;;;;;-6.41;100.00;100451.09;4980216;28;20047;-79
2022/12/15 02:25:42;;;;;;;35.03;16.08;;;;;;;-6.49;100.00;100452.13;4996839;28;20045;-78
2022/12/15 02:28:49;;;;;;;32.53;15.25;;;;;;;-6.63;100.00;100451.44;4967799;28;20035;-79
2022/12/15 02:31:50;;;;;;;33.33;15.45;;;;;;;-6.74;100.00;100433.00;5011963;28;20110;-78
2022/12/15 02:34:49;;;;;;;38.05;16.05;;;;;;;-6.63;100.00;100451.44;4944632;29;20078;-78
2022/12/15 02:37:34;;;;;;;36.97;14.13;;;;;;;-6.64;100.00;100444.34;4963760;28;20031;-78
2022/12/15 02:40:01;;;;;;;32.47;16.38;;;;;;;-6.61;100.00;100454.09;4965193;28;20102;-78
2022/12/15 02:42:29;;;;;;;29.08;13.40;;;;;;;-6.66;100.00;100459.47;4928893;28;20105;-78
2022/12/15 02:45:05;;;;;;;32.38;15.50;;;;;;;-6.66;100.00;100459.47;4959448;29;20038;-79
2022/12/15 02:47:44;;;;;;;33.13;16.55;;;;;;;-6.77;100.00;100446.34;4955312;28;20042;-79
2022/12/15 02:50:27;;;;;;;41.22;18.08;;;;;;;-6.65;100.00;100447.94;4962374;28;20438;-79
2022/12/15 02:53:30;;;;;;;44.13;17.23;;;;;;;-6.62;100.00;100458.53;4963656;28;20042;-78
2022/12/15 02:56:04;;;;;;;43.00;18.10;;;;;;;-6.61;100.00;100452.28;4958444;28;20082;-79
2022/12/15 02:59:03;;;;;;;38.58;17.30;;;;;;;-6.68;100.00;100455.97;4944722;29;20054;-78
2022/12/15 03:01:35;;;;;;;34.42;16.83;;;;;;;-6.62;100.00;100445.22;4961678;29;20043;-78
2022/12/15 03:04:05;;;;;;;36.75;16.65;;;;;;;-6.64;100.00;100455.00;4961528;28;20309;-78
2022/12/15 03:06:30;;;;;;;40.15;17.90;;;;;;;-6.58;100.00;100456.69;4950466;28;20082;-78
2022/12/15 03:08:56;;;;;;;32.58;14.55;;;;;;;-6.53;100.00;100455.72;4944336;29;20039;-78
2022/12/15 03:11:21;;;;;;;42.88;16.13;;;;;;;-6.59;100.00;100462.91;4946708;28;20076;-79
2022/12/15 03:13:47;;;;;;;45.97;17.35;;;;;;;-6.66;100.00;100459.47;4961998;28;20038;-79
2022/12/15 03:16:12;;;;;;;39.20;18.38;;;;;;;-6.67;100.00;100461.25;4945994;29;20035;-78
2022/12/15 03:18:41;;;;;;;39.28;18.33;;;;;;;-6.58;100.00;100454.91;4943986;29;20123;-79
2022/12/15 03:21:08;;;;;;;37.92;18.30;;;;;;;-6.39;100.00;100462.63;4961647;28;20039;-79
2022/12/15 03:23:33;;;;;;;35.15;17.30;;;;;;;-6.49;100.00;100465.44;4941261;29;20090;-79
2022/12/15 03:25:58;;;;;;;40.17;17.52;;;;;;;-6.58;100.00;100470.88;4944121;29;20039;-79
2022/12/15 03:28:24;;;;;;;40.90;18.80;;;;;;;-6.65;100.00;100454.13;4963776;28;20046;-78
2022/12/15 03:30:50;;;;;;;32.20;15.70;;;;;;;-6.58;100.00;100454.03;4962047;28;20447;-78
2022/12/15 03:33:16;;;;;;;39.60;17.73;;;;;;;-6.55;100.00;100459.31;4994669;28;20063;-79
2022/12/15 03:35:42;;;;;;;37.65;18.80;;;;;;;-6.50;100.00;100452.13;4993145;28;20033;-78
2022/12/15 03:38:07;;;;;;;43.78;18.70;;;;;;;-6.42;100.00;100462.69;4990566;28;20102;-79
2022/12/15 03:40:33;;;;;;;37.95;17.70;;;;;;;-6.40;100.00;100476.84;4960417;28;20129;-78
2022/12/15 03:42:58;;;;;;;43.00;18.80;;;;;;;-6.53;100.00;100481.47;4968479;28;20042;-78
2022/12/15 03:45:30;;;;;;;40.33;17.20;;;;;;;-6.45;100.00;100479.56;4997099;28;20033;-79
2022/12/15 03:47:56;;;;;;;43.38;17.67;;;;;;;-6.49;100.00;100472.56;4997764;28;20050;-78
2022/12/15 03:50:28;;;;;;;37.15;17.20;;;;;;;-6.55;100.00;100477.97;4969220;28;20125;-78
2022/12/15 03:53:00;;;;;;;39.78;17.63;;;;;;;-6.75;100.00;100471.16;4997008;28;20030;-79
2022/12/15 03:55:30;;;;;;;41.27;17.97;;;;;;;-6.68;100.00;100485.25;4972868;28;20117;-79
2022/12/15 03:57:57;;;;;;;40.30;18.15;;;;;;;-6.64;100.00;100481.63;4999060;28;20339;-79
2022/12/15 04:00:24;;;;;;;32.40;14.82;;;;;;;-6.72;100.00;100478.19;4972478;28;20498;-78
2022/12/15 04:02:50;;;;;;;48.33;16.17;;;;;;;-6.88;100.00;100486.41;4987759;28;20034;-78
2022/12/15 04:05:24;;;;;;;36.95;17.33;;;;;;;-6.82;100.00;100484.56;4983105;28;20457;-78
2022/12/15 04:07:56;;;;;;;37.92;16.38;;;;;;;-7.00;100.00;100464.41;4999028;28;20061;-79
2022/12/15 04:10:23;;;;;;;37.70;16.43;;;;;;;-6.99;100.00;100476.81;4985305;28;20481;-79
2022/12/15 04:12:56;;;;;;;46.67;19.25;;;;;;;-6.95;100.00;100457.22;5000871;28;20093;-78
2022/12/15 04:15:22;;;;;;;37.53;18.83;;;;;;;-6.77;100.00;100461.41;4967258;28;20049;-79
2022/12/15 04:17:47;;;;;;;41.25;16.77;;;;;;;-6.88;100.00;100464.25;5001571;28;20030;-79
2022/12/15 04:20:13;;;;;;;39.42;18.20;;;;;;;-6.86;100.00;100470.41;4969095;28;20081;-78
2022/12/15 04:22:43;;;;;;;33.45;16.40;;;;;;;-6.84;100.00;100460.63;4979875;28;20094;-78
2022/12/15 05:33:59;;;;;;;52.03;20.73;;;;;;;-6.85;100.00;100526.28;4984156;28;20154;-79
2022/12/15 05:36:25;;;;;;;46.78;21.33;;;;;;;-6.76;100.00;100519.06;4944772;28;20053;-79
2022/12/15 05:38:52;;;;;;;41.85;19.45;;;;;;;-6.86;100.00;100518.31;4980244;28;20055;-79
2022/12/15 05:41:21;;;;;;;59.60;22.42;;;;;;;-6.87;100.00;100524.53;4992253;28;20062;-79
2022/12/15 05:43:47;;;;;;;41.17;21.05;;;;;;;-6.80;100.00;100523.56;4978335;28;20074;-78
2022/12/15 05:46:16;;;;;;;44.10;21.13;;;;;;;-6.76;100.00;100521.72;4986110;28;20030;-78
2022/12/15 05:48:42;;;;;;;50.30;21.80;;;;;;;-6.73;100.00;100524.34;4971698;28;20113;-78
2022/12/15 05:51:11;;;;;;;57.30;22.35;;;;;;;-6.73;100.00;100524.34;4996063;28;20077;-81
2022/12/15 05:53:38;;;;;;;46.58;20.55;;;;;;;-6.87;100.00;100524.53;4998099;28;20034;-80
2022/12/15 05:56:09;;;;;;;47.88;20.67;;;;;;;-6.92;100.00;100515.72;4990594;28;20442;-79
2022/12/15 05:58:38;;;;;;;44.88;20.00;;;;;;;-6.76;100.00;100537.69;4999894;28;20447;-78
2022/12/15 06:01:13;;;;;;;51.45;21.95;;;;;;;-6.76;100.00;100530.59;4985093;28;20113;-79
2022/12/15 06:03:40;;;;;;;55.92;19.85;;;;;;;-6.70;100.00;100548.28;4999739;28;20034;-79
2022/12/15 06:06:07;;;;;;;41.53;18.25;;;;;;;-6.84;100.00;100549.34;5000586;28;20043;-78
2022/12/15 06:08:34;;;;;;;46.65;19.70;;;;;;;-6.85;100.00;100542.25;4968795;28;20053;-79
2022/12/15 06:11:01;;;;;;;43.35;19.17;;;;;;;-7.01;100.00;100524.72;4988476;28;20030;-79
2022/12/15 06:13:30;;;;;;;47.10;21.42;;;;;;;-6.77;100.00;100547.47;5005437;28;20057;-79
2022/12/15 06:16:01;;;;;;;36.47;19.73;;;;;;;-6.83;100.00;100552.88;4986517;28;20049;-79
2022/12/15 06:18:35;;;;;;;43.83;19.95;;;;;;;-6.93;100.00;100543.25;4999173;28;20038;-79
2022/12/15 06:21:05;;;;;;;47.90;20.58;;;;;;;-6.81;100.00;100555.53;5020920;28;20050;-80
2022/12/15 06:23:32;;;;;;;41.13;19.52;;;;;;;-6.91;100.00;100560.06;5003474;28;20057;-79
2022/12/15 06:25:58;;;;;;;37.45;15.93;;;;;;;-6.96;100.00;100565.44;5001725;28;20034;-79
2022/12/15 06:28:28;;;;;;;36.75;17.27;;;;;;;-6.94;100.00;100573.41;4987892;28;20042;-79
2022/12/15 06:31:02;;;;;;;42.25;17.80;;;;;;;-6.94;100.00;100571.63;5008760;28;20034;-81
2022/12/15 06:33:28;;;;;;;44.58;17.83;;;;;;;-6.94;100.00;100562.78;4999533;28;20082;-79
2022/12/15 06:36:08;;;;;;;39.53;17.58;;;;;;;-6.90;100.00;100581.34;4998235;28;20068;-79
2022/12/15 06:38:40;;;;;;;49.25;19.88;;;;;;;-6.80;100.00;100583.88;4984572;28;20034;-79
2022/12/15 06:41:07;;;;;;;42.72;17.98;;;;;;;-6.84;100.00;100562.66;5000685;28;20046;-80
2022/12/15 06:43:33;;;;;;;43.38;19.20;;;;;;;-6.89;100.00;100553.81;4990029;28;20046;-78
2022/12/15 06:45:59;;;;;;;44.78;18.38;;;;;;;-6.93;100.00;100548.56;4988243;28;20068;-78
2022/12/15 06:48:26;;;;;;;39.95;18.20;;;;;;;-6.85;100.00;100563.53;4989853;28;20038;-80
2022/12/15 06:50:52;;;;;;;44.13;17.80;;;;;;;-7.09;100.00;100530.13;5006843;28;20190;-78
2022/12/15 06:53:23;;;;;;;46.40;16.88;;;;;;;-6.82;100.00;100572.38;4990025;28;20058;-79
2022/12/15 06:55:49;;;;;;;42.90;18.75;;;;;;;-6.78;100.00;100564.34;4986923;28;20038;-79
2022/12/15 06:58:16;;;;;;;40.00;17.38;;;;;;;-6.87;100.00;100533.41;4984617;28;20597;-80
2022/12/15 07:00:43;;;;;;;45.22;19.42;;;;;;;-6.76;100.00;100559.88;5004237;28;20031;-80
2022/12/15 07:03:14;;;;;;;45.38;19.83;;;;;;;-6.88;100.00;100552.94;4975453;28;20039;-80
2022/12/15 07:05:40;;;;;;;38.42;18.23;;;;;;;-6.81;100.00;100563.50;4995465;28;20432;-79
2022/12/15 07:08:09;;;;;;;41.55;19.85;;;;;;;-6.85;100.00;100566.19;4974603;28;20478;-79
2022/12/15 07:10:40;;;;;;;40.80;18.70;;;;;;;-6.86;100.00;100569.75;4999727;28;20039;-80
2022/12/15 07:13:10;;;;;;;40.58;18.77;;;;;;;-6.85;100.00;100579.50;4987548;28;20042;-79
2022/12/15 07:15:35;;;;;;;40.72;18.70;;;;;;;-6.87;100.00;100572.44;4968685;28;20113;-78
2022/12/15 07:18:03;;;;;;;40.72;17.55;;;;;;;-6.81;100.00;100576.81;4992091;28;20038;-79
2022/12/15 07:20:39;;;;;;;47.42;18.55;;;;;;;-6.79;100.00;100575.88;4996967;28;20042;-78
2022/12/15 07:23:08;;;;;;;43.40;19.55;;;;;;;-6.79;100.00;100577.66;4969160;28;20501;-79
2022/12/15 07:25:38;;;;;;;38.20;17.42;;;;;;;-6.77;100.00;100578.50;5001895;28;20066;-79
2022/12/15 07:28:05;;;;;;;40.45;19.88;;;;;;;-6.78;100.00;100576.78;5000889;28;20073;-79
2022/12/15 07:30:31;;;;;;;42.53;19.58;;;;;;;-6.78;100.00;100574.97;5001107;28;20038;-79
2022/12/15 07:32:57;;;;;;;39.08;18.85;;;;;;;-6.76;100.00;100572.31;4983970;28;20056;-79
2022/12/15 07:35:23;;;;;;;39.42;19.60;;;;;;;-6.80;100.00;100575.88;4983530;28;20027;-79
2022/12/15 07:37:49;;;;;;;43.60;20.65;;;;;;;-6.84;100.00;100577.72;4975616;28;20461;-80
2022/12/15 07:40:15;;;;;;;43.17;19.58;;;;;;;-6.78;100.00;100579.44;4977356;28;20045;-79
2022/12/15 07:42:40;;;;;;;43.17;19.15;;;;;;;-6.88;100.00;100579.53;4967605;28;20039;-79
2022/12/15 07:45:06;;;;;;;46.65;19.80;;;;;;;-6.81;100.00;100588.31;4983524;28;20041;-78
2022/12/15 07:47:32;;;;;;;42.33;18.15;;;;;;;-6.82;100.00;100591.00;5001027;28;20045;-77
2022/12/15 07:49:58;;;;;;;46.97;19.75;;;;;;;-6.94;100.00;100592.03;4980866;28;20049;-77
2022/12/15 07:52:24;;;;;;;43.17;18.63;;;;;;;-6.96;100.00;100592.06;4995312;28;20060;-77
2022/12/15 07:54:49;;;;;;;43.90;19.35;;;;;;;-6.76;100.00;100598.91;4980949;28;20093;-77
2022/12/15 07:57:15;;;;;;;45.47;20.42;;;;;;;-6.81;100.00;100596.31;4982163;28;20046;-77
2022/12/15 07:59:41;;;;;;;41.38;19.17;;;;;;;-6.82;100.00;100604.31;4949617;28;20125;-78
2022/12/15 08:02:09;;;;;;;40.97;19.00;;;;;;;-6.79;100.00;100609.59;4982624;28;20046;-77
2022/12/15 08:04:34;;;;;;;41.00;20.60;;;;;;;-6.81;100.00;100603.44;4998541;28;20497;-77
2022/12/15 08:07:00;;;;;;;48.72;19.48;;;;;;;-6.76;100.00;100598.91;4999710;28;20065;-77
2022/12/15 08:09:25;;;;;;;41.85;20.38;;;;;;;-6.73;100.00;100605.09;4980769;28;20048;-77
2022/12/15 08:11:51;;;;;;;48.10;19.10;;;;;;;-6.71;100.00;100605.94;4981382;28;20042;-77
2022/12/15 08:14:17;;;;;;;47.22;20.65;;;;;;;-6.65;100.00;100612.97;4979580;28;20034;-77
2022/12/15 08:16:42;;;;;;;49.28;19.50;;;;;;;-6.64;100.00;100620.03;4966187;28;20038;-77
2022/12/15 08:19:14;;;;;;;49.25;19.65;;;;;;;-6.64;100.00;100612.06;4994980;28;20698;-77
2022/12/15 08:21:40;;;;;;;55.13;21.52;;;;;;;-6.74;100.00;100591.78;4998348;28;20104;-78
2022/12/15 08:24:07;;;;;;;48.22;20.58;;;;;;;-6.57;100.00;100607.56;5001876;28;20508;-78
2022/12/15 08:26:33;;;;;;;49.47;21.42;;;;;;;-6.54;100.00;100604.84;4982128;28;20158;-78
2022/12/15 08:29:06;;;;;;;44.75;20.70;;;;;;;-6.34;100.00;100615.25;4995464;28;20273;-78
2022/12/15 08:31:32;;;;;;;45.45;21.00;;;;;;;-6.29;100.00;100613.41;4966630;28;20045;-78
2022/12/15 08:34:02;;;;;;;47.50;21.00;;;;;;;-6.33;100.00;100619.66;4948545;28;20054;-78
2022/12/15 08:36:28;;;;;;;45.67;20.20;;;;;;;-6.35;100.00;100610.81;4996938;28;20061;-78
2022/12/15 08:38:56;;;;;;;49.55;20.80;;;;;;;-6.42;100.00;100598.50;4999753;28;20442;-78
2022/12/15 08:41:25;;;;;;;48.75;21.98;;;;;;;-6.32;100.00;100608.09;4983427;28;20034;-78
2022/12/15 08:43:53;;;;;;;44.60;20.52;;;;;;;-6.30;100.00;100614.28;5000883;28;20030;-78
2022/12/15 08:46:21;;;;;;;55.78;22.27;;;;;;;-6.16;100.00;100607.00;4984137;28;20042;-78
2022/12/15 08:48:47;;;;;;;48.80;20.55;;;;;;;-6.21;100.00;100611.50;5002830;28;20107;-79
2022/12/15 08:51:13;;;;;;;40.35;20.35;;;;;;;-6.07;100.00;100621.06;4969072;28;20038;-79
2022/12/15 08:53:38;;;;;;;49.20;20.08;;;;;;;-5.93;100.00;100619.06;4984650;28;20053;-78
2022/12/15 08:56:06;;;;;;;48.10;21.67;;;;;;;-5.89;100.00;100623.44;4984996;28;20030;-78
2022/12/15 08:58:33;;;;;;;48.20;22.42;;;;;;;-5.82;100.00;100634.88;5001477;28;20113;-78
2022/12/15 09:01:00;;;;;;;52.38;22.33;;;;;;;-5.76;100.00;100638.31;5000229;28;20092;-78
2022/12/15 09:03:26;;;;;;;51.05;22.25;;;;;;;-5.76;100.00;100638.31;4981833;28;20038;-79
2022/12/15 09:05:51;;;;;;;53.72;23.67;;;;;;;-5.82;100.00;100626.88;4998130;28;20066;-78
2022/12/15 09:08:18;;;;;;;51.85;22.17;;;;;;;-5.68;100.00;100634.66;4976807;28;20062;-78
2022/12/15 09:10:43;;;;;;;46.42;22.70;;;;;;;-5.54;100.00;100643.34;4997756;28;20039;-78
2022/12/15 09:13:09;;;;;;;50.60;21.65;;;;;;;-5.51;100.00;100645.06;4981322;28;20042;-79
2022/12/15 09:15:34;;;;;;;47.92;23.00;;;;;;;-5.52;100.00;100645.97;4999708;28;20050;-78
2022/12/15 09:18:00;;;;;;;44.75;22.17;;;;;;;-5.42;100.00;100647.56;4984540;28;20113;-78
2022/12/15 09:20:25;;;;;;;59.17;23.48;;;;;;;-5.36;100.00;100648.34;4983736;28;20062;-79
2022/12/15 09:22:50;;;;;;;52.90;23.73;;;;;;;-5.24;100.00;100651.72;5000661;28;20038;-78
2022/12/15 09:25:16;;;;;;;54.67;25.15;;;;;;;-5.21;100.00;100667.69;4973324;28;20430;-77
2022/12/15 09:27:41;;;;;;;52.28;24.40;;;;;;;-5.14;100.00;100660.44;5003938;28;20038;-78
2022/12/15 09:30:08;;;;;;;54.28;25.08;;;;;;;-5.05;100.00;100655.81;5016320;28;20045;-78
2022/12/15 09:32:33;;;;;;;69.47;25.15;;;;;;;-4.96;100.00;100665.44;4980771;28;20145;-78
2022/12/15 09:34:59;;;;;;;42.38;20.40;;;;;;;-4.85;100.00;100667.91;4965839;28;20064;-78
2022/12/15 09:37:26;;;;;;;61.35;25.45;;;;;;;-4.84;100.00;100672.34;4950795;28;20093;-78
2022/12/15 09:39:51;;;;;;;54.92;24.95;;;;;;;-4.68;100.00;100673.81;4982819;28;20072;-78
2022/12/15 09:42:35;;;;;;;56.95;24.92;;;;;;;-4.66;100.00;100663.09;4979967;28;20602;-78
2022/12/15 09:45:13;;;;;;;53.38;24.60;;;;;;;-4.51;100.00;100659.22;4981494;28;20043;-78
2022/12/15 09:47:51;;;;;;;55.80;24.13;;;;;;;-4.29;100.00;100689.06;4990532;28;20044;-78
2022/12/15 09:50:21;;;;;;;48.42;23.38;;;;;;;-4.20;100.00;100694.22;5000623;28;20034;-78
2022/12/15 09:52:51;;;;;;;48.40;22.02;;;;;;;-4.13;100.00;100686.94;4983197;28;20037;-79
2022/12/15 09:55:25;;;;;;;56.92;24.42;;;;;;;-3.94;100.00;100700.81;4997964;28;20346;-79
2022/12/15 09:58:20;;;;;;;52.55;23.33;;;;;;;-3.72;100.00;100701.22;5001582;28;20026;-79
2022/12/15 10:00:54;;;;;;;37.08;19.05;;;;;;;-3.84;100.00;100701.47;4979380;28;20038;-79
2022/12/15 10:03:38;;;;;;;54.45;24.27;;;;;;;-3.77;100.00;100708.44;4983784;28;20140;-79
2022/12/15 10:06:20;;;;;;;58.85;23.05;;;;;;;-3.77;100.00;100703.09;4999093;28;20038;-79
2022/12/15 10:08:52;;;;;;;47.10;21.52;;;;;;;-3.52;100.00;100712.31;5000388;28;20049;-79
2022/12/15 10:11:20;;;;;;;54.00;23.00;;;;;;;-3.51;100.00;100706.06;4999428;28;20072;-79
2022/12/15 10:14:05;;;;;;;49.55;23.80;;;;;;;-3.37;100.00;100704.84;4983204;28;20069;-79
2022/12/15 10:16:40;;;;;;;51.60;24.23;;;;;;;-3.19;100.00;100716.91;4999900;28;20121;-79
2022/12/15 10:19:27;;;;;;;50.40;22.17;;;;;;;-3.18;100.00;100711.50;5001492;28;20107;-78
2022/12/15 10:21:57;;;;;;;52.85;24.63;;;;;;;-3.05;100.00;100703.16;4999499;28;20040;-79
2022/12/15 10:24:23;;;;;;;55.30;24.05;;;;;;;-3.20;100.00;100710.69;5000052;28;20062;-79
2022/12/15 10:27:05;;;;;;;48.03;23.52;;;;;;;-3.14;100.00;100720.34;4980392;28;20099;-79
2022/12/15 10:29:44;;;;;;;55.78;26.40;;;;;;;-2.99;100.00;100706.56;4984091;28;20056;-79
2022/12/15 10:32:29;;;;;;;53.92;23.42;;;;;;;-2.84;100.00;100715.13;4997829;28;20058;-78
2022/12/15 10:34:55;;;;;;;52.22;23.90;;;;;;;-2.82;100.00;100705.25;4998782;28;20034;-78
2022/12/15 10:37:20;;;;;;;58.72;24.55;;;;;;;-2.73;100.00;100707.69;4982601;28;20039;-78
2022/12/15 10:39:48;;;;;;;49.17;23.67;;;;;;;-2.73;100.00;100715.72;4983533;28;20038;-78
2022/12/15 10:42:22;;;;;;;46.80;22.17;;;;;;;-2.56;100.00;100706.34;4997357;28;20031;-78
2022/12/15 10:44:51;;;;;;;51.10;24.60;;;;;;;-2.51;100.00;100697.28;5000990;28;20478;-79
2022/12/15 10:47:24;;;;;;;53.72;25.25;;;;;;;-2.23;100.00;100697.38;4999215;28;20031;-78
2022/12/15 10:49:50;;;;;;;;;;;;;;;-2.28;100.00;100703.75;4998223;28;20038;-79
2022/12/15 10:52:24;;;;;;;48.13;22.48;;;;;;;-2.32;100.00;100699.44;4996802;28;20005;-79
2022/12/15 10:54:52;;;;;;;50.35;24.55;;;;;;;-2.21;100.00;100702.69;4999549;28;20348;-78
2022/12/15 10:57:30;;;;;;;51.40;23.92;;;;;;;-2.23;100.00;100702.72;5001300;28;20077;-78
2022/12/15 11:00:14;;;;;;;46.22;23.10;;;;;;;-2.10;100.00;100705.94;5002139;28;20062;-77
2022/12/15 11:02:41;;;;;;;53.20;23.30;;;;;;;-1.95;100.00;100704.59;5003207;28;20038;-79
2022/12/15 11:05:16;;;;;;;51.47;25.90;;;;;;;-1.93;100.00;100709.91;5000970;28;20042;-78
2022/12/15 11:07:45;;;;;;;54.88;25.38;;;;;;;-1.93;100.00;100709.91;5000085;28;20062;-79
2022/12/15 11:10:15;;;;;;;53.67;25.10;;;;;;;-1.90;100.00;100704.47;5001987;28;20033;-79
2022/12/15 11:12:51;;;;;;;55.70;25.98;;;;;;;-1.85;100.00;100703.38;5002200;28;20039;-79
2022/12/15 11:15:22;;;;;;;57.47;24.13;;;;;;;-1.96;100.00;100701.97;5001208;28;20224;-78
2022/12/15 11:17:56;;;;;;;51.88;26.33;;;;;;;-1.87;100.00;100698.97;5001617;28;20041;-79
2022/12/15 11:20:36;;;;;;;57.00;25.55;;;;;;;-1.68;100.00;100689.44;5002390;28;20393;-79
2022/12/15 11:23:10;;;;;;;51.30;24.40;;;;;;;-1.78;100.00;100695.16;4984722;28;20026;-79
2022/12/15 11:25:44;;;;;;;53.92;25.70;;;;;;;-1.88;100.00;100691.88;5001134;28;20045;-78
2022/12/15 11:28:15;;;;;;;55.83;26.55;;;;;;;-1.78;100.00;100693.34;5001055;28;20026;-79
2022/12/15 11:31:04;;;;;;;59.95;27.40;;;;;;;-1.74;100.00;100678.91;4990842;28;20034;-79
2022/12/15 11:33:30;;;;;;;56.47;27.13;;;;;;;-1.81;100.00;100677.34;5002233;28;20137;-80
2022/12/15 11:36:25;;;;;;;53.63;25.98;;;;;;;-1.80;100.00;100688.94;4949461;28;20528;-79
2022/12/15 11:39:03;;;;;;;48.88;24.60;;;;;;;-1.83;100.00;100681.00;5000017;28;20058;-79
2022/12/15 11:42:00;;;;;;;58.33;27.10;;;;;;;-1.79;100.00;100691.56;4984735;28;20125;-79
2022/12/15 11:45:02;;;;;;;50.72;25.02;;;;;;;-1.64;100.00;100684.88;5000853;28;20030;-79
2022/12/15 11:47:47;;;;;;;47.03;24.52;;;;;;;-1.64;100.00;100689.34;4980846;28;20142;-79
2022/12/15 11:50:51;;;;;;;53.45;25.75;;;;;;;-1.59;100.00;100671.28;4983294;28;20044;-78
2022/12/15 11:53:43;;;;;;;52.15;23.88;;;;;;;-1.47;100.00;100676.28;4957853;28;20061;-78
2022/12/15 11:56:30;;;;;;;48.80;23.20;;;;;;;-1.52;100.00;100673.72;5018514;28;20513;-78
2022/12/15 11:59:29;;;;;;;57.22;23.48;;;;;;;-1.45;100.00;100674.41;5000298;28;20046;-78
2022/12/15 12:02:16;;;;;;;56.38;24.08;;;;;;;-1.52;100.00;100670.19;4999771;28;20054;-79
2022/12/15 12:05:00;;;;;;;55.05;23.73;;;;;;;-1.46;100.00;100666.41;4971549;28;20070;-79
2022/12/15 12:07:43;;;;;;;52.20;24.80;;;;;;;-1.51;100.00;100662.09;4981704;28;20026;-79
2022/12/15 12:10:20;;;;;;;57.53;23.20;;;;;;;-1.52;100.00;100664.81;4981321;28;20093;-79
2022/12/15 12:13:03;;;;;;;54.28;24.77;;;;;;;-1.46;100.00;100669.09;4999582;28;20050;-79
2022/12/15 12:15:41;;;;;;;43.45;23.10;;;;;;;-1.44;100.00;100670.81;4997698;28;20042;-78
2022/12/15 12:18:16;;;;;;;52.45;23.00;;;;;;;-1.48;100.00;100667.34;4983279;28;20026;-79
2022/12/15 12:21:00;;;;;;;50.53;23.88;;;;;;;-1.44;100.00;100667.22;4982009;28;20031;-79
2022/12/15 12:23:43;;;;;;;;;;;;;;;-1.46;100.00;100672.66;4985668;28;20073;-78
2022/12/15 12:26:15;;;;;;;;;;;;;;;-1.41;100.00;100665.34;4984022;28;20392;-78
2022/12/15 12:28:46;;;;;;;50.75;22.27;;;;;;;-1.36;100.00;100666.06;5001013;28;19921;-79
2022/12/15 12:31:30;;;;;;;53.97;23.98;;;;;;;-1.36;100.00;100663.38;5000883;28;20042;-78
2022/12/15 12:34:07;;;;;;;48.70;22.83;;;;;;;-1.36;100.00;100647.28;4997510;28;20046;-79
2022/12/15 12:36:32;;;;;;;55.28;24.15;;;;;;;-1.31;100.00;100657.88;4999971;28;20030;-79
2022/12/15 12:38:58;;;;;;;54.13;24.77;;;;;;;-1.27;100.00;100643.38;4981000;28;20062;-79
2022/12/15 12:41:45;;;;;;;53.83;24.13;;;;;;;-1.24;100.00;100655.84;4981268;28;20026;-79
2022/12/15 12:44:29;;;;;;;48.58;23.58;;;;;;;-1.21;100.00;100655.75;4982100;28;20043;-79
2022/12/15 12:46:56;;;;;;;48.75;24.67;;;;;;;-1.18;100.00;100650.25;4998465;28;20042;-78
2022/12/15 12:49:32;;;;;;;55.35;23.63;;;;;;;-1.13;100.00;100653.69;4983911;28;20069;-78
2022/12/15 12:52:01;;;;;;;51.13;23.40;;;;;;;-1.22;100.00;100637.88;4993325;28;20425;-78
2022/12/15 12:54:35;;;;;;;57.17;26.73;;;;;;;-1.20;100.00;100636.00;4964181;28;20035;-79
2022/12/15 12:57:10;;;;;;;62.30;26.25;;;;;;;-1.18;100.00;100636.81;4981865;28;20088;-80
2022/12/15 12:59:42;;;;;;;55.72;24.50;;;;;;;-1.12;100.00;100636.63;4981903;28;20038;-79
2022/12/15 13:02:14;;;;;;;49.30;24.33;;;;;;;-1.02;100.00;100645.22;4986060;28;20181;-79
2022/12/15 13:04:50;;;;;;;53.00;24.50;;;;;;;-0.98;100.00;100638.84;4998819;28;20049;-79
2022/12/15 13:07:37;;;;;;;49.83;24.17;;;;;;;-1.05;100.00;100639.97;5000273;28;20026;-78
2022/12/15 13:10:22;;;;;;;54.67;23.23;;;;;;;-1.01;100.00;100636.25;5001091;28;20031;-78
2022/12/15 13:12:51;;;;;;;51.53;23.48;;;;;;;-1.02;100.00;100642.56;5000175;28;20045;-78
2022/12/15 13:15:26;;;;;;;57.03;24.38;;;;;;;-1.00;100.00;100629.94;4999863;28;20038;-79
2022/12/15 13:17:56;;;;;;;54.92;25.15;;;;;;;-1.05;100.00;100627.44;4984345;28;20066;-81
2022/12/15 13:20:31;;;;;;;51.83;24.83;;;;;;;-0.95;100.00;100618.09;4986867;28;20478;-78
2022/12/15 13:23:19;;;;;;;45.65;22.42;;;;;;;-0.99;100.00;100619.13;4999380;28;20037;-79
2022/12/15 13:25:56;;;;;;;44.13;22.33;;;;;;;-1.01;100.00;100615.63;4999430;28;20034;-80
2022/12/15 13:28:22;;;;;;;53.38;23.08;;;;;;;-1.00;100.00;100620.09;4980114;28;20030;-78
2022/12/15 13:31:15;;;;;;;52.28;24.65;;;;;;;-0.94;100.00;100621.66;4992705;28;20418;-79
2022/12/15 13:33:43;;;;;;;;;;;;;;;-0.88;100.00;100617.91;5002071;28;20129;-78
2022/12/15 13:36:09;;;;;;;41.83;20.65;;;;;;;-0.94;100.00;100601.03;4989006;28;19964;-79
2022/12/15 13:38:53;;;;;;;40.60;19.35;;;;;;;-0.87;100.00;100592.75;5011596;28;20023;-79
2022/12/15 13:41:22;;;;;;;51.78;23.25;;;;;;;-0.89;100.00;100600.00;4998351;28;20567;-79
2022/12/15 13:43:52;;;;;;;49.38;22.17;;;;;;;-0.94;100.00;100595.66;4997003;28;20044;-79
2022/12/15 13:46:24;;;;;;;49.67;23.10;;;;;;;-1.04;100.00;100599.63;4998348;28;20026;-79